Terminal Aerodrome Forecast
Issued by NWS Sioux Falls, SD

Home | Current Version | Previous Version | Graphics & Text | Print | Product List | Glossary On
Versions: 1 2 3 4 5 6 7 8 9 10 11 12 13 14 15 16 17 18
000
FTUS43 KFSD 222300
TAFFSD
TAF
KFSD 222329Z 2300/2324 07006KT P6SM SCT030 BKN200
     FM230900 07009KT P6SM VCTS SCT015 OVC035CB
      TEMPO 2310/2313 2SM TSRA BR SCT008 BKN015CB
     FM231300 10012KT 5SM BR BKN006
     FM231600 12013G20KT P6SM SCT015 BKN035=

USA.gov is the U.S. government's official web portal to all federal, state and local government web resources and services.